Time;durP1;ratioP1;P1;durP2;ratioP2;P2;SDS_P1;SDS_P2;PMS_P1;PMS_P2;Temp;Humidity;BMP_temperature;BMP_pressure;BME280_temperature;BME280_humidity;BME280_pressure;Samples;Min_cycle;Max_cycle;Signal;HPM_P1;HPM_P2
2023/02/20 00:00:21;;;;;;;6.22;4.40;;;;;;;0.06;67.81;96452.09;4958860;28;20395;-65
2023/02/20 00:02:46;;;;;;;9.23;5.03;;;;;;;0.33;67.11;96448.75;4959231;28;20529;-65
2023/02/20 00:05:12;;;;;;;13.75;7.90;;;;;;;0.97;65.07;96442.25;4956460;28;20087;-65
2023/02/20 00:07:37;;;;;;;9.15;6.30;;;;;;;0.85;65.33;96447.31;4953681;28;20070;-65
2023/02/20 00:10:03;;;;;;;10.45;5.75;;;;;;;0.52;65.99;96455.50;4958743;28;20467;-65
2023/02/20 00:12:28;;;;;;;12.63;7.47;;;;;;;-0.47;69.89;96453.38;4961067;28;20094;-65
2023/02/20 00:14:54;;;;;;;8.75;5.50;;;;;;;-0.19;69.88;96449.16;4959040;28;20065;-65
2023/02/20 00:17:19;;;;;;;6.88;5.25;;;;;;;0.14;68.38;96451.66;4959205;28;20110;-65
2023/02/20 00:19:45;;;;;;;11.88;6.80;;;;;;;0.26;68.35;96452.69;4960025;28;20520;-65
2023/02/20 00:22:10;;;;;;;12.48;8.38;;;;;;;0.16;68.49;96442.78;4955017;28;20086;-65
2023/02/20 00:24:35;;;;;;;13.13;8.95;;;;;;;0.55;67.54;96434.34;4958367;28;20083;-65
2023/02/20 00:27:01;;;;;;;11.10;6.85;;;;;;;0.32;67.64;96424.34;4958268;28;20599;-66
2023/02/20 00:29:26;;;;;;;13.57;9.38;;;;;;;0.80;66.18;96417.09;4955937;28;20097;-65
2023/02/20 00:31:55;;;;;;;9.60;6.20;;;;;;;-0.06;68.15;96415.25;4958504;28;20109;-65
2023/02/20 00:34:21;;;;;;;14.27;8.95;;;;;;;0.66;66.47;96410.09;4957262;28;20110;-66
2023/02/20 00:36:47;;;;;;;13.80;8.43;;;;;;;0.38;67.01;96414.44;4957533;28;20201;-65
2023/02/20 00:39:13;;;;;;;13.60;8.82;;;;;;;0.18;67.37;96419.09;4957006;28;20070;-65
2023/02/20 00:41:38;;;;;;;10.52;6.70;;;;;;;-0.14;68.23;96421.88;4956220;28;20454;-65
2023/02/20 00:44:04;;;;;;;15.15;11.75;;;;;;;-0.64;71.13;96411.66;4959704;28;20077;-65
2023/02/20 00:46:29;;;;;;;14.90;9.75;;;;;;;-0.93;72.23;96415.00;4959959;28;20079;-65
2023/02/20 00:48:55;;;;;;;17.77;11.10;;;;;;;-0.85;72.71;96410.16;4954856;28;20156;-65
2023/02/20 00:51:20;;;;;;;16.95;10.35;;;;;;;-0.71;71.73;96414.63;4955726;28;20275;-65
2023/02/20 00:53:45;;;;;;;15.27;9.73;;;;;;;-0.90;73.59;96422.66;4958258;28;20080;-65
2023/02/20 00:56:11;;;;;;;16.25;9.75;;;;;;;-0.63;71.97;96418.56;4961970;28;20501;-65
2023/02/20 00:58:36;;;;;;;25.30;16.38;;;;;;;-1.91;77.70;96420.19;4970924;28;20118;-65
2023/02/20 01:01:02;;;;;;;24.92;14.38;;;;;;;-1.72;78.41;96426.13;4957303;28;20154;-65
2023/02/20 01:03:27;;;;;;;18.77;10.38;;;;;;;-1.46;77.02;96417.81;4956417;28;20091;-65
2023/02/20 01:05:53;;;;;;;19.15;12.55;;;;;;;-1.69;77.88;96419.91;4961062;28;20105;-65
2023/02/20 01:08:18;;;;;;;17.95;11.25;;;;;;;-1.26;76.33;96423.72;4955295;28;20486;-65
2023/02/20 01:10:43;;;;;;;15.93;10.02;;;;;;;-0.99;74.85;96415.28;4958813;28;20100;-65
2023/02/20 01:13:09;;;;;;;15.88;9.13;;;;;;;-1.02;74.95;96402.41;4960510;28;20096;-65
2023/02/20 01:15:34;;;;;;;19.00;12.35;;;;;;;-0.46;72.56;96394.06;4959460;28;20070;-65
2023/02/20 01:17:59;;;;;;;15.95;10.02;;;;;;;-0.75;73.20;96401.81;4959815;28;20687;-65
2023/02/20 01:20:25;;;;;;;12.65;8.32;;;;;;;-0.95;74.10;96398.53;4962812;28;20759;-65
2023/02/20 01:22:50;;;;;;;14.77;10.27;;;;;;;-0.33;71.82;96389.78;4961566;28;20307;-65
2023/02/20 01:25:16;;;;;;;15.02;10.13;;;;;;;-0.07;70.67;96382.16;4958101;28;20098;-65
2023/02/20 01:27:41;;;;;;;13.40;10.07;;;;;;;0.08;69.72;96387.41;4959080;28;20101;-65
2023/02/20 01:30:07;;;;;;;13.45;7.95;;;;;;;0.23;68.97;96401.31;4960061;28;20095;-65
2023/02/20 01:32:32;;;;;;;13.65;7.82;;;;;;;0.51;68.00;96399.63;4958335;28;20083;-65
2023/02/20 01:34:58;;;;;;;11.38;8.02;;;;;;;0.72;67.26;96388.75;4980495;28;20311;-65
2023/02/20 01:37:23;;;;;;;11.48;7.80;;;;;;;0.63;67.57;96387.53;4962180;28;20211;-65
2023/02/20 01:39:49;;;;;;;11.00;7.75;;;;;;;0.95;66.13;96389.91;4953998;28;20583;-66
2023/02/20 01:42:19;;;;;;;13.73;8.07;;;;;;;0.95;65.44;96389.03;4961815;28;20574;-65
2023/02/20 01:44:45;;;;;;;15.88;10.40;;;;;;;1.25;65.24;96385.38;4963549;28;20371;-65
2023/02/20 01:47:22;;;;;;;12.85;6.80;;;;;;;1.20;64.91;96387.47;4957095;28;20296;-65
2023/02/20 01:49:51;;;;;;;9.60;5.95;;;;;;;1.18;64.77;96382.31;4960973;28;20101;-65
2023/02/20 01:52:17;;;;;;;;;;;;;;;1.44;64.34;96386.78;4958055;28;20068;-66
2023/02/20 01:54:42;;;;;;;14.37;7.83;;;;;;;1.77;62.88;96382.06;4960987;28;20041;-65
2023/02/20 01:57:10;;;;;;;13.35;8.18;;;;;;;1.98;62.28;96380.56;4944183;28;20601;-65
2023/02/20 01:59:36;;;;;;;12.25;8.25;;;;;;;1.94;61.77;96373.03;4956230;28;20060;-65
2023/02/20 02:02:02;;;;;;;12.80;9.45;;;;;;;1.43;61.99;96377.25;4942226;28;20101;-65
2023/02/20 02:04:27;;;;;;;11.98;8.73;;;;;;;1.68;62.08;96363.34;4954781;28;20085;-65
2023/02/20 02:06:52;;;;;;;12.65;8.90;;;;;;;0.83;63.35;96370.56;4958291;28;20120;-65
2023/02/20 02:09:52;;;;;;;13.02;8.82;;;;;;;1.48;61.86;96365.50;4970180;28;20409;-65
2023/02/20 02:12:17;;;;;;;13.52;8.70;;;;;;;1.22;64.02;96372.47;4939343;28;20090;-65
2023/02/20 02:14:42;;;;;;;10.60;7.68;;;;;;;1.66;62.18;96361.78;4957310;28;20349;-65
2023/02/20 02:17:41;;;;;;;9.68;6.90;;;;;;;2.11;61.47;96358.75;4956840;28;20072;-65
2023/02/20 02:20:29;;;;;;;11.40;8.07;;;;;;;2.29;59.91;96356.63;4958685;28;20054;-66
2023/02/20 02:23:13;;;;;;;11.43;8.40;;;;;;;2.41;58.63;96354.88;4954047;28;20053;-65
2023/02/20 02:25:48;;;;;;;11.95;8.77;;;;;;;2.07;59.91;96352.84;4958148;28;20610;-65
2023/02/20 02:28:50;;;;;;;10.73;6.93;;;;;;;2.38;58.47;96344.59;4955412;28;20600;-65
2023/02/20 02:31:40;;;;;;;8.88;6.13;;;;;;;2.42;58.72;96342.59;4957781;28;20076;-65
2023/02/20 02:34:37;;;;;;;12.30;7.57;;;;;;;2.74;57.80;96348.19;4960728;28;20412;-65
2023/02/20 02:37:30;;;;;;;9.98;5.55;;;;;;;2.39;57.99;96352.38;4955981;28;20597;-65
2023/02/20 02:39:58;;;;;;;9.48;5.25;;;;;;;2.28;58.25;96344.41;4952739;28;20415;-65
2023/02/20 02:42:30;;;;;;;8.50;6.22;;;;;;;2.42;57.67;96339.97;4953535;28;20138;-66
2023/02/20 02:45:14;;;;;;;9.95;5.50;;;;;;;2.49;59.21;96335.97;4955116;28;20420;-66
2023/02/20 02:48:04;;;;;;;9.88;6.18;;;;;;;2.26;58.58;96336.66;4956980;28;20144;-66
2023/02/20 02:50:33;;;;;;;9.52;5.85;;;;;;;2.65;57.76;96336.53;4960936;28;20091;-65
2023/02/20 02:52:58;;;;;;;8.38;6.03;;;;;;;2.73;57.06;96320.19;4959790;28;20077;-65
2023/02/20 02:55:26;;;;;;;11.05;7.30;;;;;;;1.90;58.63;96334.78;4959996;28;20056;-65
2023/02/20 02:57:51;;;;;;;8.18;5.65;;;;;;;2.43;56.78;96331.13;4962336;28;20084;-65
2023/02/20 03:00:29;;;;;;;8.27;6.03;;;;;;;2.11;58.75;96338.53;4956198;28;20539;-65
2023/02/20 03:02:56;;;;;;;8.75;4.97;;;;;;;1.70;59.33;96334.38;4940324;28;20060;-65
2023/02/20 03:05:23;;;;;;;7.43;4.78;;;;;;;1.51;59.99;96330.34;4957888;28;20568;-65
2023/02/20 03:07:51;;;;;;;8.50;5.75;;;;;;;1.33;60.84;96335.03;4964192;28;20116;-64
2023/02/20 03:10:19;;;;;;;10.68;5.60;;;;;;;1.45;60.27;96342.09;4958049;28;20091;-65
2023/02/20 03:12:47;;;;;;;7.95;4.93;;;;;;;1.50;60.01;96339.16;4960655;28;20078;-65
2023/02/20 03:15:37;;;;;;;6.53;4.55;;;;;;;1.17;61.12;96337.81;4964077;28;20540;-65
2023/02/20 03:18:09;;;;;;;9.27;6.00;;;;;;;1.28;60.73;96339.72;4942195;28;20087;-65
2023/02/20 03:20:35;;;;;;;8.43;6.13;;;;;;;1.18;61.07;96329.84;4955074;28;20094;-65
2023/02/20 03:23:01;;;;;;;11.13;6.45;;;;;;;1.12;60.21;96335.50;4959795;28;20056;-65
2023/02/20 03:25:35;;;;;;;9.50;6.38;;;;;;;1.43;59.18;96325.59;4958338;28;20110;-65
2023/02/20 03:28:10;;;;;;;9.55;6.40;;;;;;;1.08;60.62;96319.13;4938226;28;20587;-65
2023/02/20 03:30:39;;;;;;;8.55;5.85;;;;;;;1.00;60.57;96303.06;4938760;28;20148;-65
2023/02/20 03:44:18;;;;;;;7.72;5.07;;;;;;;1.00;60.50;96302.22;4942730;28;20543;-65
2023/02/20 03:46:44;;;;;;;10.77;6.35;;;;;;;0.48;61.29;96310.72;4939903;28;20094;-65
2023/02/20 03:49:14;;;;;;;8.30;5.20;;;;;;;1.08;59.64;96305.16;4938709;28;20087;-65
2023/02/20 03:51:40;;;;;;;7.80;5.03;;;;;;;1.09;59.41;96307.69;4941795;28;20138;-66
2023/02/20 03:54:06;;;;;;;9.45;4.75;;;;;;;1.04;59.88;96307.16;4959982;28;20093;-65
2023/02/20 03:56:38;;;;;;;9.57;4.97;;;;;;;0.87;59.95;96323.16;4950415;28;20215;-65
2023/02/20 03:59:14;;;;;;;9.32;5.03;;;;;;;0.80;60.13;96315.69;4931218;28;20098;-65
2023/02/20 04:01:40;;;;;;;10.15;5.75;;;;;;;0.83;59.53;96304.16;4955377;28;20138;-65
2023/02/20 04:04:06;;;;;;;12.43;6.18;;;;;;;0.69;60.47;96302.44;4952765;28;20456;-65
2023/02/20 04:06:31;;;;;;;11.25;5.47;;;;;;;0.85;60.77;96291.78;4955502;28;20054;-65
2023/02/20 04:09:03;;;;;;;7.97;5.57;;;;;;;0.81;60.02;96298.16;4943650;28;20136;-65
2023/02/20 04:11:38;;;;;;;6.80;4.13;;;;;;;0.87;59.57;96297.78;4942585;28;20098;-66
2023/02/20 04:14:03;;;;;;;8.52;5.00;;;;;;;0.85;59.43;96299.66;4942032;28;20113;-65
2023/02/20 04:16:28;;;;;;;9.70;5.72;;;;;;;-0.10;62.11;96301.16;4937684;28;20082;-65
2023/02/20 04:18:54;;;;;;;11.15;5.35;;;;;;;0.71;60.02;96295.28;4955370;28;20413;-65
2023/02/20 04:21:26;;;;;;;8.40;5.72;;;;;;;0.68;60.28;96295.53;4952152;28;20078;-65
2023/02/20 04:24:06;;;;;;;8.30;5.55;;;;;;;0.62;59.64;96285.41;4955827;28;20523;-65
2023/02/20 04:26:31;;;;;;;7.85;5.13;;;;;;;0.91;59.62;96301.03;4976853;28;20103;-65
2023/02/20 04:28:57;;;;;;;10.80;5.65;;;;;;;0.89;59.89;96295.06;4937659;28;20198;-65
2023/02/20 04:31:22;;;;;;;9.40;5.07;;;;;;;0.92;59.41;96298.31;4956077;28;20457;-65
2023/02/20 04:33:48;;;;;;;6.93;4.55;;;;;;;0.82;59.75;96292.00;4944732;28;20124;-65
2023/02/20 04:36:13;;;;;;;7.25;4.97;;;;;;;0.96;59.84;96289.28;4956983;28;20244;-65
2023/02/20 04:38:38;;;;;;;8.65;5.20;;;;;;;0.79;59.60;96286.94;4950957;28;20113;-65
2023/02/20 04:41:04;;;;;;;8.38;5.25;;;;;;;0.92;59.11;96290.44;4950086;28;20104;-65
2023/02/20 04:43:29;;;;;;;7.03;4.97;;;;;;;0.84;59.36;96292.72;4956242;28;20062;-65
2023/02/20 04:45:55;;;;;;;9.32;6.15;;;;;;;0.71;59.94;96282.19;4958489;28;20558;-65
2023/02/20 04:48:20;;;;;;;10.20;5.00;;;;;;;0.88;58.85;96291.59;4963337;28;20087;-66
2023/02/20 04:50:45;;;;;;;8.82;5.25;;;;;;;0.83;58.97;96288.44;4960627;28;20110;-65
2023/02/20 04:53:11;;;;;;;8.48;5.30;;;;;;;0.98;59.36;96290.06;4960712;28;20100;-65
2023/02/20 04:55:36;;;;;;;8.32;5.40;;;;;;;0.81;59.58;96285.06;4960235;28;20065;-65
2023/02/20 04:58:02;;;;;;;7.88;5.10;;;;;;;0.84;59.39;96287.47;4962431;28;20460;-65
2023/02/20 05:00:27;;;;;;;10.38;6.38;;;;;;;0.76;59.51;96297.63;4961940;28;20094;-65
2023/02/20 05:02:53;;;;;;;8.52;5.65;;;;;;;0.76;59.03;96293.25;4963089;28;20072;-65
2023/02/20 05:05:20;;;;;;;9.93;6.05;;;;;;;0.72;59.53;96295.19;4958410;28;20447;-65
2023/02/20 05:07:45;;;;;;;8.85;5.68;;;;;;;0.67;59.62;96289.44;4963190;28;20071;-65
2023/02/20 05:10:15;;;;;;;11.65;5.38;;;;;;;0.80;59.58;96289.47;4957061;28;20103;-65
2023/02/20 05:12:40;;;;;;;10.85;6.05;;;;;;;0.83;59.66;96289.28;4975618;28;20082;-66
2023/02/20 05:15:06;;;;;;;10.52;6.00;;;;;;;0.83;59.99;96284.03;4959526;28;20073;-65
2023/02/20 05:17:31;;;;;;;11.85;6.47;;;;;;;0.92;59.77;96282.56;4963252;28;20084;-65
2023/02/20 05:19:57;;;;;;;11.02;6.75;;;;;;;0.96;59.77;96288.47;4958723;28;20071;-65
2023/02/20 05:22:22;;;;;;;10.43;6.80;;;;;;;0.68;60.93;96290.28;4961029;28;20284;-65
2023/02/20 05:24:48;;;;;;;10.02;6.30;;;;;;;1.01;60.39;96277.66;4958045;28;20098;-65
2023/02/20 05:27:15;;;;;;;10.68;5.97;;;;;;;0.81;60.78;96272.81;4958952;28;20110;-66
2023/02/20 05:29:51;;;;;;;14.55;8.85;;;;;;;0.81;61.48;96270.19;4963425;28;20179;-66
2023/02/20 05:32:17;;;;;;;23.00;8.57;;;;;;;0.55;62.27;96275.31;4962775;28;20081;-65
2023/02/20 05:34:43;;;;;;;11.63;7.75;;;;;;;0.96;60.86;96268.31;4958746;28;20323;-66
2023/02/20 05:37:09;;;;;;;26.00;8.13;;;;;;;0.97;61.30;96272.66;4961601;28;20121;-66
2023/02/20 05:39:34;;;;;;;15.15;7.75;;;;;;;0.78;61.93;96264.31;4959261;28;20520;-65
2023/02/20 05:41:59;;;;;;;17.60;9.30;;;;;;;0.96;60.38;96257.00;4960391;28;20087;-66
2023/02/20 05:44:25;;;;;;;23.10;8.77;;;;;;;1.28;59.65;96250.53;4958936;28;20611;-66
2023/02/20 05:46:50;;;;;;;14.20;8.40;;;;;;;1.34;59.97;96255.38;4959896;28;20079;-66
2023/02/20 05:49:16;;;;;;;16.67;8.55;;;;;;;1.16;60.51;96252.22;4961599;28;20083;-66
2023/02/20 05:51:41;;;;;;;13.23;7.63;;;;;;;1.21;60.66;96255.34;4961870;28;20370;-65
2023/02/20 05:54:07;;;;;;;18.98;9.13;;;;;;;1.05;60.61;96245.88;4960741;28;20082;-66
2023/02/20 05:56:32;;;;;;;12.75;6.50;;;;;;;1.34;60.50;96245.72;4958836;28;20089;-66
2023/02/20 05:58:58;;;;;;;22.60;8.38;;;;;;;0.67;61.87;96251.88;4958649;28;20055;-65
2023/02/20 06:01:32;;;;;;;15.35;8.55;;;;;;;1.16;59.91;96242.53;4956110;28;20081;-65
2023/02/20 06:04:00;;;;;;;12.70;7.70;;;;;;;1.48;60.59;96236.06;4962356;28;20063;-66
2023/02/20 06:06:32;;;;;;;15.07;8.07;;;;;;;1.61;60.34;96236.91;4962326;28;20094;-66
2023/02/20 06:08:58;;;;;;;17.15;8.90;;;;;;;1.83;59.00;96234.56;4957072;28;20144;-66
2023/02/20 06:11:23;;;;;;;14.25;7.97;;;;;;;1.17;61.07;96244.25;4959426;28;20565;-65
2023/02/20 06:13:48;;;;;;;20.70;9.13;;;;;;;1.41;59.73;96253.16;4959686;28;20081;-66
2023/02/20 06:16:23;;;;;;;12.32;7.70;;;;;;;1.68;59.04;96247.00;4957839;28;20067;-66
2023/02/20 06:18:48;;;;;;;12.77;7.70;;;;;;;1.58;59.58;96250.25;4957499;28;20061;-66
2023/02/20 06:21:14;;;;;;;12.65;7.90;;;;;;;1.49;60.07;96242.97;4961613;28;20077;-66
2023/02/20 06:23:42;;;;;;;15.60;7.22;;;;;;;1.05;61.48;96240.66;4959615;28;20065;-65
2023/02/20 06:26:07;;;;;;;32.63;8.35;;;;;;;1.95;58.58;96243.38;4958190;28;20113;-66
2023/02/20 06:28:33;;;;;;;64.65;8.40;;;;;;;0.97;60.37;96249.03;4960337;28;20089;-65
2023/02/20 06:30:58;;;;;;;25.13;7.60;;;;;;;1.43;60.10;96256.53;4961020;28;20080;-66
2023/02/20 06:33:24;;;;;;;101.40;8.48;;;;;;;-0.53;67.21;96261.91;4956410;28;20077;-65
2023/02/20 06:35:49;;;;;;;27.20;5.97;;;;;;;0.05;65.17;96264.50;4959107;28;20650;-66
2023/02/20 06:38:14;;;;;;;189.20;10.02;;;;;;;0.06;64.41;96266.19;4961402;28;20438;-66
2023/02/20 06:40:40;;;;;;;71.68;7.25;;;;;;;0.50;63.77;96264.31;4959742;28;20078;-65
2023/02/20 06:43:05;;;;;;;39.03;5.28;;;;;;;0.69;63.23;96265.75;4955267;28;20080;-65
2023/02/20 06:45:31;;;;;;;8.95;4.47;;;;;;;1.20;61.18;96261.56;4957468;28;20156;-65
2023/02/20 06:47:56;;;;;;;167.65;8.07;;;;;;;0.69;62.47;96265.75;4958304;28;20061;-66
2023/02/20 06:50:21;;;;;;;44.80;5.30;;;;;;;1.20;61.40;96253.69;4960429;28;20617;-65
2023/02/20 06:52:47;;;;;;;305.50;10.77;;;;;;;-0.19;64.99;96263.31;4958225;28;20138;-66
2023/02/20 06:55:12;;;;;;;193.95;9.05;;;;;;;0.26;65.03;96251.00;4958927;28;20054;-65
2023/02/20 06:57:38;;;;;;;83.70;5.82;;;;;;;-0.17;67.56;96252.75;4959045;28;20138;-65
2023/02/20 07:00:04;;;;;;;16.00;4.95;;;;;;;0.64;64.08;96252.94;4954865;28;20497;-66
2023/02/20 07:02:29;;;;;;;92.85;6.70;;;;;;;1.01;62.43;96254.06;4958795;28;20058;-66
2023/02/20 07:04:54;;;;;;;124.68;7.10;;;;;;;0.89;63.28;96253.09;4956215;28;20447;-65
2023/02/20 07:07:20;;;;;;;232.85;10.63;;;;;;;0.78;62.10;96243.34;4955139;28;20065;-65
2023/02/20 07:09:45;;;;;;;36.15;4.43;;;;;;;-0.10;66.51;96253.22;4952773;28;20153;-66
2023/02/20 07:12:11;;;;;;;33.85;4.88;;;;;;;0.87;63.54;96245.34;4955034;28;20067;-65
2023/02/20 07:14:36;;;;;;;9.50;3.80;;;;;;;1.04;62.80;96249.47;4959008;28;20068;-65
2023/02/20 07:17:02;;;;;;;84.97;6.25;;;;;;;0.77;63.18;96245.09;4954487;28;20099;-65
2023/02/20 07:19:27;;;;;;;58.80;5.72;;;;;;;0.53;64.26;96250.16;4957611;28;20113;-65
2023/02/20 07:21:52;;;;;;;12.60;5.38;;;;;;;1.39;62.12;96244.56;4953662;28;20093;-66
2023/02/20 07:24:18;;;;;;;90.45;6.63;;;;;;;0.51;63.92;96245.00;4958956;28;20080;-66
2023/02/20 07:26:43;;;;;;;22.55;4.85;;;;;;;0.25;65.42;96258.03;4958526;28;20601;-65
2023/02/20 07:29:11;;;;;;;12.93;4.70;;;;;;;1.06;63.36;96247.56;4959608;28;20082;-65
2023/02/20 07:31:37;;;;;;;8.45;4.80;;;;;;;0.99;62.77;96238.44;4955229;28;20095;-65
2023/02/20 07:34:03;;;;;;;7.10;3.65;;;;;;;0.23;66.72;96240.69;4953540;28;20584;-66
2023/02/20 07:36:28;;;;;;;12.05;4.43;;;;;;;1.33;62.37;96251.06;4954767;28;20083;-66
2023/02/20 07:38:55;;;;;;;13.30;4.43;;;;;;;0.78;63.73;96233.66;4958499;28;20113;-66
2023/02/20 07:41:20;;;;;;;8.15;4.10;;;;;;;0.56;64.25;96240.34;4960017;28;20078;-65
2023/02/20 07:43:46;;;;;;;8.98;3.90;;;;;;;0.56;65.53;96242.97;4958413;28;20406;-66
2023/02/20 07:46:11;;;;;;;7.85;4.72;;;;;;;1.60;61.91;96223.91;4962785;28;20087;-66
2023/02/20 07:48:37;;;;;;;6.60;3.70;;;;;;;1.73;61.09;96221.25;4961868;28;20083;-65
2023/02/20 07:51:02;;;;;;;5.82;4.20;;;;;;;1.84;60.90;96226.59;4960388;28;20398;-65
2023/02/20 07:53:27;;;;;;;7.07;3.88;;;;;;;2.08;60.40;96227.59;4960644;28;20082;-65
2023/02/20 07:55:53;;;;;;;6.22;3.30;;;;;;;1.80;60.39;96225.13;4961596;28;20064;-66
2023/02/20 07:58:19;;;;;;;8.50;4.38;;;;;;;1.53;61.96;96228.72;4956482;28;20094;-66
2023/02/20 08:00:44;;;;;;;7.65;3.88;;;;;;;1.91;59.91;96223.53;4960553;28;20090;-66
2023/02/20 08:03:10;;;;;;;5.63;3.45;;;;;;;2.06;59.62;96230.34;4956308;28;20069;-65
2023/02/20 08:05:35;;;;;;;8.88;4.10;;;;;;;1.08;61.41;96222.09;4952163;28;20531;-66
2023/02/20 08:08:01;;;;;;;7.28;4.03;;;;;;;1.52;61.54;96216.53;4957653;28;20061;-65
2023/02/20 08:10:27;;;;;;;6.85;3.90;;;;;;;2.03;60.03;96211.31;4954978;28;20078;-65
2023/02/20 08:12:52;;;;;;;8.68;4.60;;;;;;;1.79;59.17;96209.47;4957057;28;20162;-66
2023/02/20 08:15:18;;;;;;;6.38;3.65;;;;;;;1.81;60.79;96215.47;4955019;28;20063;-65
2023/02/20 08:17:44;;;;;;;8.02;3.83;;;;;;;1.60;60.91;96222.09;4952451;28;20096;-66
2023/02/20 08:20:09;;;;;;;9.85;3.97;;;;;;;1.64;60.82;96214.03;4957174;28;20061;-65
2023/02/20 08:22:35;;;;;;;6.80;3.25;;;;;;;1.04;63.81;96218.00;4952045;28;20404;-67
2023/02/20 08:25:02;;;;;;;5.90;3.33;;;;;;;0.99;63.96;96222.72;4953475;28;20088;-65
2023/02/20 08:27:27;;;;;;;10.90;4.25;;;;;;;1.22;61.30;96212.44;4954739;28;20091;-65
2023/02/20 08:29:53;;;;;;;8.95;4.15;;;;;;;0.82;63.64;96221.22;4954708;28;20111;-66
2023/02/20 08:32:18;;;;;;;6.22;3.83;;;;;;;1.16;63.28;96218.94;4958300;28;20078;-65
2023/02/20 08:34:44;;;;;;;7.32;3.92;;;;;;;0.02;66.42;96218.41;4957496;28;20071;-65
2023/02/20 08:37:09;;;;;;;8.35;4.40;;;;;;;1.07;62.91;96223.03;4960835;28;20088;-66
2023/02/20 08:39:35;;;;;;;4.93;3.08;;;;;;;1.37;62.39;96218.44;4953849;28;20408;-64
2023/02/20 08:42:01;;;;;;;7.18;3.90;;;;;;;1.39;61.97;96223.56;4951825;28;20085;-65
2023/02/20 08:44:26;;;;;;;5.57;2.72;;;;;;;1.08;63.04;96226.47;4959349;28;20082;-66
2023/02/20 08:46:51;;;;;;;7.85;4.22;;;;;;;0.44;64.17;96233.25;4950600;28;20064;-65
2023/02/20 08:49:17;;;;;;;8.85;4.68;;;;;;;1.07;62.47;96236.16;4955915;28;20097;-65
2023/02/20 08:51:53;;;;;;;7.72;3.80;;;;;;;1.56;62.12;96222.41;4956461;28;20067;-65
2023/02/20 08:54:19;;;;;;;6.32;3.88;;;;;;;1.68;61.18;96220.75;4956731;28;20083;-65
2023/02/20 08:56:44;;;;;;;9.45;4.50;;;;;;;1.21;62.26;96222.09;4955480;28;20077;-65
2023/02/20 08:59:10;;;;;;;7.82;3.92;;;;;;;1.72;61.37;96224.81;4960922;28;20059;-66
2023/02/20 09:01:35;;;;;;;7.75;3.80;;;;;;;1.60;62.13;96219.47;4960163;28;20450;-65
2023/02/20 09:04:01;;;;;;;8.55;4.13;;;;;;;1.80;61.57;96219.88;4959662;28;20115;-65
2023/02/20 09:06:27;;;;;;;6.55;3.90;;;;;;;2.18;60.58;96219.91;4958705;28;20061;-65
2023/02/20 09:08:53;;;;;;;8.45;4.53;;;;;;;1.58;60.92;96212.66;4951798;28;20081;-66
2023/02/20 09:11:19;;;;;;;9.20;4.50;;;;;;;2.28;58.28;96207.75;4954381;28;20083;-65
2023/02/20 09:13:45;;;;;;;9.52;4.82;;;;;;;1.18;61.94;96221.44;4957590;28;20108;-65
2023/02/20 09:16:12;;;;;;;9.77;4.65;;;;;;;0.45;66.23;96216.59;4956592;28;20488;-65
2023/02/20 09:18:37;;;;;;;7.70;4.25;;;;;;;1.06;65.47;96216.09;4953193;28;20133;-66
2023/02/20 09:21:02;;;;;;;6.38;3.92;;;;;;;2.09;60.75;96213.50;4960210;28;20478;-65
2023/02/20 09:23:28;;;;;;;6.28;3.47;;;;;;;2.26;60.05;96214.91;4961556;28;20075;-66
2023/02/20 09:25:54;;;;;;;6.07;4.10;;;;;;;1.54;61.68;96224.31;4960353;28;20416;-65
2023/02/20 09:28:19;;;;;;;6.97;4.15;;;;;;;1.81;62.58;96223.34;4949397;28;20074;-65
2023/02/20 09:30:45;;;;;;;6.80;3.15;;;;;;;2.33;59.86;96215.31;4953717;28;20084;-65
2023/02/20 09:33:10;;;;;;;7.72;3.38;;;;;;;2.67;60.39;96220.75;4958112;28;20079;-65
2023/02/20 09:35:36;;;;;;;7.07;3.45;;;;;;;3.10;59.13;96214.03;4958752;28;20048;-65
2023/02/20 09:38:01;;;;;;;7.53;3.97;;;;;;;2.14;60.21;96219.25;4962774;28;20456;-66
2023/02/20 09:40:28;;;;;;;4.63;3.33;;;;;;;2.27;59.48;96224.47;4962029;28;20076;-66
2023/02/20 09:42:56;;;;;;;6.53;3.20;;;;;;;2.83;58.93;96211.72;4959125;28;20511;-65
2023/02/20 09:45:24;;;;;;;3.50;2.72;;;;;;;3.01;57.25;96214.75;4962122;28;20140;-66
2023/02/20 09:48:21;;;;;;;8.18;3.63;;;;;;;3.07;57.19;96208.19;4948047;28;20527;-66
2023/02/20 09:50:54;;;;;;;6.55;3.67;;;;;;;2.65;58.56;96206.84;4959192;28;20569;-66
2023/02/20 09:53:45;;;;;;;6.82;4.10;;;;;;;2.30;58.79;96205.88;4956994;28;20069;-66
2023/02/20 09:56:14;;;;;;;7.88;3.47;;;;;;;2.75;59.11;96202.59;4951229;28;20445;-65
2023/02/20 09:58:59;;;;;;;6.55;3.20;;;;;;;3.01;56.47;96212.13;4942844;28;20517;-65
2023/02/20 10:01:25;;;;;;;6.65;2.88;;;;;;;2.86;55.81;96211.47;4959406;28;20181;-65
2023/02/20 10:03:54;;;;;;;3.22;2.55;;;;;;;2.79;54.34;96221.59;4961912;28;20061;-66
2023/02/20 10:06:21;;;;;;;4.30;2.53;;;;;;;2.53;57.04;96213.88;4964262;28;20083;-66
2023/02/20 10:08:47;;;;;;;5.45;2.80;;;;;;;2.78;54.12;96215.53;4962419;28;20452;-66
2023/02/20 10:11:19;;;;;;;5.93;3.08;;;;;;;1.81;56.94;96231.22;4954771;28;20489;-67
2023/02/20 10:14:15;;;;;;;4.80;2.78;;;;;;;1.92;57.40;96219.97;4939594;28;20299;-66
2023/02/20 10:17:01;;;;;;;3.25;2.35;;;;;;;2.10;59.03;96217.81;4931908;28;20452;-66
2023/02/20 10:19:36;;;;;;;6.97;3.30;;;;;;;2.61;57.27;96208.88;4963602;28;20136;-66
2023/02/20 10:22:10;;;;;;;5.95;3.20;;;;;;;3.39;55.46;96204.88;4945898;28;20079;-67
2023/02/20 10:24:41;;;;;;;5.55;3.10;;;;;;;3.45;54.13;96198.34;4962606;28;20099;-66
2023/02/20 10:27:45;;;;;;;5.60;2.92;;;;;;;4.16;53.82;96195.44;4962704;28;20149;-67
2023/02/20 10:30:12;;;;;;;4.38;2.78;;;;;;;3.52;53.04;96199.53;4960452;28;20580;-66
2023/02/20 10:33:02;;;;;;;6.88;2.80;;;;;;;3.98;52.27;96200.34;4960832;28;20108;-66
2023/02/20 10:35:35;;;;;;;5.82;2.60;;;;;;;2.75;54.82;96204.38;4977600;28;20344;-66
2023/02/20 10:38:04;;;;;;;6.45;3.15;;;;;;;2.20;55.89;96197.81;4960455;28;20101;-66
2023/02/20 10:40:56;;;;;;;;;;;;;;;2.25;56.14;96197.50;4946855;28;20076;-66
2023/02/20 10:43:24;;;;;;;4.47;2.88;;;;;;;2.10;57.16;96195.00;4961628;28;20002;-66
2023/02/20 10:46:07;;;;;;;4.13;2.78;;;;;;;2.58;57.45;96200.41;4957563;28;20070;-66
2023/02/20 10:48:32;;;;;;;4.80;2.70;;;;;;;2.78;54.84;96198.91;4978339;28;20083;-66
2023/02/20 10:51:17;;;;;;;6.50;3.17;;;;;;;2.75;54.94;96199.13;4960569;28;20066;-66
2023/02/20 10:54:03;;;;;;;5.70;2.47;;;;;;;3.52;54.19;96197.75;4945971;28;20108;-67
2023/02/20 10:56:43;;;;;;;4.40;2.50;;;;;;;3.26;54.18;96197.94;4943180;28;20524;-66
2023/02/20 10:59:19;;;;;;;3.30;2.65;;;;;;;3.78;52.69;96194.84;4961544;28;20059;-66
2023/02/20 11:01:47;;;;;;;4.60;3.00;;;;;;;2.59;55.76;96189.75;4961224;28;20685;-66
2023/02/20 11:04:24;;;;;;;4.90;3.03;;;;;;;2.93;55.29;96180.28;4962804;28;20144;-66
2023/02/20 11:06:58;;;;;;;3.97;2.83;;;;;;;2.78;55.40;96193.63;4948306;28;20109;-66
2023/02/20 11:09:24;;;;;;;6.15;3.38;;;;;;;3.32;54.88;96179.97;4956784;28;20514;-66
2023/02/20 11:11:50;;;;;;;10.35;2.67;;;;;;;3.29;56.48;96178.44;4959311;28;20346;-66
2023/02/20 11:14:15;;;;;;;8.90;2.88;;;;;;;3.27;55.86;96178.53;4943975;28;20577;-66
2023/02/20 11:16:45;;;;;;;5.88;3.10;;;;;;;2.74;54.22;96176.41;4957356;28;20071;-67
2023/02/20 11:19:55;;;;;;;6.30;2.83;;;;;;;3.06;55.25;96174.94;4940706;28;20505;-67
2023/02/20 11:22:43;;;;;;;4.78;2.78;;;;;;;2.90;56.64;96176.09;4961126;28;20363;-66
2023/02/20 11:25:18;;;;;;;5.93;3.05;;;;;;;3.00;55.99;96165.72;4959008;28;20536;-66
2023/02/20 11:27:49;;;;;;;4.05;2.63;;;;;;;3.65;53.21;96166.03;4960093;28;20141;-66
2023/02/20 11:30:31;;;;;;;4.05;2.45;;;;;;;2.61;54.88;96165.97;4959788;28;20477;-66
2023/02/20 11:33:11;;;;;;;4.72;2.80;;;;;;;3.04;56.15;96172.44;4959872;28;20079;-66
2023/02/20 11:35:37;;;;;;;5.07;2.65;;;;;;;2.66;56.60;96179.63;4958898;28;20317;-66
2023/02/20 11:38:16;;;;;;;4.90;2.53;;;;;;;2.86;56.46;96178.09;4957004;28;20083;-66
2023/02/20 11:40:42;;;;;;;3.85;2.75;;;;;;;2.81;55.83;96188.16;4970952;28;20087;-66
2023/02/20 11:43:18;;;;;;;7.20;3.20;;;;;;;3.03;55.92;96176.84;4974009;28;20401;-66
2023/02/20 11:45:43;;;;;;;3.78;2.78;;;;;;;3.36;54.72;96182.25;4953569;28;20453;-67
2023/02/20 11:48:12;;;;;;;4.70;2.90;;;;;;;3.81;53.37;96172.69;4957805;28;20061;-66
2023/02/20 11:50:40;;;;;;;;;;;;;;;4.30;52.40;96159.19;4967811;28;20070;-67
2023/02/20 11:53:06;;;;;;;4.32;2.72;;;;;;;4.04;52.03;96148.94;4957233;28;19966;-67
2023/02/20 11:55:32;;;;;;;3.85;2.70;;;;;;;4.40;52.46;96146.94;4958916;28;20079;-67